Bordulac, North Dakota
Current Conditions -  °F | °C
As of 7:35 AM on Wednesday 22 Oct 2014 (Local Time) from K46D Reporting Station
Haze Haze  
Wind Chill: 54°   Ceiling: Unl
Heat Index: 54°   Visibility: 3mi
Dew Point: 46°   Wind: 9mph
Humidity: 77%   Direction: 150°SSE
Pressure: 29.76"   Gusts: NA
Location:  47.4573°N, 99.0752°W
Report Text: K46D 221235Z AUTO 15008KT 3SM HZ CLR 12/08 A2976 RMK AO2
Loading
Personal Weather Stations






























Interactive Weather Map
Tropical Storm Tracking
New forecast layout! Learn more

10-Day Weather Forecast

Advertisements
Track Severe Weather on mobile